sensor_id;sensor_type;location;lat;lon;timestamp;P1;durP1;ratioP1;P2;durP2;ratioP2
81996;SDS011;71500;50.806;8.774;2024-01-11T00:01:54;18.90;;;10.90;;
81996;SDS011;71500;50.806;8.774;2024-01-11T00:04:26;20.50;;;10.60;;
81996;SDS011;71500;50.806;8.774;2024-01-11T00:06:57;17.00;;;9.70;;
81996;SDS011;71500;50.806;8.774;2024-01-11T00:09:29;17.80;;;10.40;;
81996;SDS011;71500;50.806;8.774;2024-01-11T00:12:00;15.00;;;9.10;;
81996;SDS011;71500;50.806;8.774;2024-01-11T00:14:31;14.30;;;9.50;;
81996;SDS011;71500;50.806;8.774;2024-01-11T00:17:04;13.90;;;9.00;;
81996;SDS011;71500;50.806;8.774;2024-01-11T00:19:35;17.30;;;10.00;;
81996;SDS011;71500;50.806;8.774;2024-01-11T00:22:06;18.30;;;10.70;;
81996;SDS011;71500;50.806;8.774;2024-01-11T00:24:37;22.00;;;11.60;;
81996;SDS011;71500;50.806;8.774;2024-01-11T00:27:10;20.80;;;9.50;;
81996;SDS011;71500;50.806;8.774;2024-01-11T00:29:41;19.20;;;10.70;;
81996;SDS011;71500;50.806;8.774;2024-01-11T00:32:12;19.30;;;9.70;;
81996;SDS011;71500;50.806;8.774;2024-01-11T00:34:44;20.80;;;11.30;;
81996;SDS011;71500;50.806;8.774;2024-01-11T00:37:16;21.00;;;10.40;;
81996;SDS011;71500;50.806;8.774;2024-01-11T00:39:48;16.00;;;9.40;;
81996;SDS011;71500;50.806;8.774;2024-01-11T00:42:19;19.80;;;10.70;;
81996;SDS011;71500;50.806;8.774;2024-01-11T00:44:50;19.10;;;9.90;;
81996;SDS011;71500;50.806;8.774;2024-01-11T00:47:22;16.60;;;10.30;;
81996;SDS011;71500;50.806;8.774;2024-01-11T00:49:54;19.70;;;11.50;;
81996;SDS011;71500;50.806;8.774;2024-01-11T00:52:25;20.70;;;11.30;;
81996;SDS011;71500;50.806;8.774;2024-01-11T00:54:57;21.30;;;12.70;;
81996;SDS011;71500;50.806;8.774;2024-01-11T00:57:28;18.80;;;10.10;;
81996;SDS011;71500;50.806;8.774;2024-01-11T01:00:00;20.30;;;10.90;;
81996;SDS011;71500;50.806;8.774;2024-01-11T01:02:31;22.60;;;10.60;;
81996;SDS011;71500;50.806;8.774;2024-01-11T01:05:04;19.10;;;11.20;;
81996;SDS011;71500;50.806;8.774;2024-01-11T01:07:36;22.20;;;10.60;;
81996;SDS011;71500;50.806;8.774;2024-01-11T01:10:08;19.40;;;10.90;;
81996;SDS011;71500;50.806;8.774;2024-01-11T01:12:40;21.40;;;12.30;;
81996;SDS011;71500;50.806;8.774;2024-01-11T01:15:11;19.60;;;11.10;;
81996;SDS011;71500;50.806;8.774;2024-01-11T01:17:43;23.40;;;11.00;;
81996;SDS011;71500;50.806;8.774;2024-01-11T01:20:15;18.80;;;8.70;;
81996;SDS011;71500;50.806;8.774;2024-01-11T01:22:46;22.00;;;11.00;;
81996;SDS011;71500;50.806;8.774;2024-01-11T01:25:18;21.30;;;12.90;;
81996;SDS011;71500;50.806;8.774;2024-01-11T01:27:50;21.30;;;11.60;;
81996;SDS011;71500;50.806;8.774;2024-01-11T01:30:22;19.90;;;11.40;;
81996;SDS011;71500;50.806;8.774;2024-01-11T01:32:53;16.80;;;9.50;;
81996;SDS011;71500;50.806;8.774;2024-01-11T01:35:25;19.60;;;10.00;;
81996;SDS011;71500;50.806;8.774;2024-01-11T01:37:56;19.70;;;11.10;;
81996;SDS011;71500;50.806;8.774;2024-01-11T01:40:29;18.50;;;10.50;;
81996;SDS011;71500;50.806;8.774;2024-01-11T01:43:01;16.10;;;9.60;;
81996;SDS011;71500;50.806;8.774;2024-01-11T01:45:36;15.10;;;8.20;;
81996;SDS011;71500;50.806;8.774;2024-01-11T01:48:07;18.30;;;9.90;;
81996;SDS011;71500;50.806;8.774;2024-01-11T01:50:39;21.90;;;10.80;;
81996;SDS011;71500;50.806;8.774;2024-01-11T01:53:11;12.30;;;7.40;;
81996;SDS011;71500;50.806;8.774;2024-01-11T01:55:43;21.70;;;10.20;;
81996;SDS011;71500;50.806;8.774;2024-01-11T01:58:14;21.80;;;11.00;;
81996;SDS011;71500;50.806;8.774;2024-01-11T02:00:47;28.70;;;12.90;;
81996;SDS011;71500;50.806;8.774;2024-01-11T02:03:21;32.90;;;13.90;;
81996;SDS011;71500;50.806;8.774;2024-01-11T02:05:55;30.20;;;13.30;;
81996;SDS011;71500;50.806;8.774;2024-01-11T02:08:27;39.00;;;19.00;;
81996;SDS011;71500;50.806;8.774;2024-01-11T02:11:00;31.00;;;16.00;;
81996;SDS011;71500;50.806;8.774;2024-01-11T02:13:32;38.30;;;16.10;;
81996;SDS011;71500;50.806;8.774;2024-01-11T02:16:05;39.50;;;15.60;;
81996;SDS011;71500;50.806;8.774;2024-01-11T02:18:36;34.50;;;16.70;;
81996;SDS011;71500;50.806;8.774;2024-01-11T02:21:08;28.50;;;13.20;;
81996;SDS011;71500;50.806;8.774;2024-01-11T02:23:42;15.20;;;10.80;;
81996;SDS011;71500;50.806;8.774;2024-01-11T02:26:16;15.40;;;9.40;;
81996;SDS011;71500;50.806;8.774;2024-01-11T02:28:50;13.20;;;9.10;;
81996;SDS011;71500;50.806;8.774;2024-01-11T02:31:22;12.90;;;8.50;;
81996;SDS011;71500;50.806;8.774;2024-01-11T02:48:02;17.80;;;9.60;;
81996;SDS011;71500;50.806;8.774;2024-01-11T02:50:34;14.80;;;9.00;;
81996;SDS011;71500;50.806;8.774;2024-01-11T02:53:05;19.20;;;10.30;;
81996;SDS011;71500;50.806;8.774;2024-01-11T02:55:36;17.60;;;9.90;;
81996;SDS011;71500;50.806;8.774;2024-01-11T02:58:07;16.20;;;9.50;;
81996;SDS011;71500;50.806;8.774;2024-01-11T03:00:38;17.40;;;9.00;;
81996;SDS011;71500;50.806;8.774;2024-01-11T03:03:10;21.80;;;9.80;;
81996;SDS011;71500;50.806;8.774;2024-01-11T03:05:41;18.00;;;9.40;;
81996;SDS011;71500;50.806;8.774;2024-01-11T03:08:14;19.50;;;10.20;;
81996;SDS011;71500;50.806;8.774;2024-01-11T03:10:45;18.40;;;10.10;;
81996;SDS011;71500;50.806;8.774;2024-01-11T03:13:17;14.10;;;8.80;;
81996;SDS011;71500;50.806;8.774;2024-01-11T03:15:48;20.50;;;10.20;;
81996;SDS011;71500;50.806;8.774;2024-01-11T03:18:19;17.60;;;9.50;;
81996;SDS011;71500;50.806;8.774;2024-01-11T03:20:51;15.30;;;9.40;;
81996;SDS011;71500;50.806;8.774;2024-01-11T03:23:22;17.70;;;9.30;;
81996;SDS011;71500;50.806;8.774;2024-01-11T03:25:54;18.00;;;8.40;;
81996;SDS011;71500;50.806;8.774;2024-01-11T03:28:25;18.90;;;9.50;;
81996;SDS011;71500;50.806;8.774;2024-01-11T03:30:56;12.30;;;6.90;;
81996;SDS011;71500;50.806;8.774;2024-01-11T03:33:28;16.60;;;8.80;;
81996;SDS011;71500;50.806;8.774;2024-01-11T03:35:59;18.60;;;10.10;;
81996;SDS011;71500;50.806;8.774;2024-01-11T03:38:35;19.00;;;11.30;;
81996;SDS011;71500;50.806;8.774;2024-01-11T03:41:08;14.80;;;8.80;;
81996;SDS011;71500;50.806;8.774;2024-01-11T03:43:40;14.80;;;9.60;;
81996;SDS011;71500;50.806;8.774;2024-01-11T03:46:11;12.90;;;8.10;;
81996;SDS011;71500;50.806;8.774;2024-01-11T03:48:42;14.90;;;8.60;;
81996;SDS011;71500;50.806;8.774;2024-01-11T03:51:14;18.10;;;9.30;;
81996;SDS011;71500;50.806;8.774;2024-01-11T03:53:45;15.90;;;8.90;;
81996;SDS011;71500;50.806;8.774;2024-01-11T03:56:17;18.20;;;9.50;;
81996;SDS011;71500;50.806;8.774;2024-01-11T03:58:49;19.50;;;8.60;;
81996;SDS011;71500;50.806;8.774;2024-01-11T04:01:20;15.90;;;9.80;;
81996;SDS011;71500;50.806;8.774;2024-01-11T04:03:52;14.70;;;9.30;;
81996;SDS011;71500;50.806;8.774;2024-01-11T04:06:23;18.50;;;9.90;;
81996;SDS011;71500;50.806;8.774;2024-01-11T04:08:55;18.20;;;11.10;;
81996;SDS011;71500;50.806;8.774;2024-01-11T04:11:28;21.90;;;11.40;;
81996;SDS011;71500;50.806;8.774;2024-01-11T04:16:30;16.00;;;8.70;;
81996;SDS011;71500;50.806;8.774;2024-01-11T04:19:01;17.90;;;9.70;;
81996;SDS011;71500;50.806;8.774;2024-01-11T04:21:33;18.10;;;9.60;;
81996;SDS011;71500;50.806;8.774;2024-01-11T04:24:07;14.80;;;10.30;;
81996;SDS011;71500;50.806;8.774;2024-01-11T04:26:38;17.60;;;10.50;;
81996;SDS011;71500;50.806;8.774;2024-01-11T04:29:10;24.10;;;12.80;;
81996;SDS011;71500;50.806;8.774;2024-01-11T04:31:41;26.20;;;13.80;;
81996;SDS011;71500;50.806;8.774;2024-01-11T04:34:13;24.80;;;13.60;;
81996;SDS011;71500;50.806;8.774;2024-01-11T04:36:45;24.40;;;13.50;;
81996;SDS011;71500;50.806;8.774;2024-01-11T04:39:16;27.50;;;13.20;;
81996;SDS011;71500;50.806;8.774;2024-01-11T04:41:47;38.40;;;16.10;;
81996;SDS011;71500;50.806;8.774;2024-01-11T04:44:18;38.10;;;13.40;;
81996;SDS011;71500;50.806;8.774;2024-01-11T04:46:51;33.60;;;14.70;;
81996;SDS011;71500;50.806;8.774;2024-01-11T04:49:23;34.80;;;14.60;;
81996;SDS011;71500;50.806;8.774;2024-01-11T04:51:54;13.70;;;9.10;;
81996;SDS011;71500;50.806;8.774;2024-01-11T04:54:26;21.00;;;10.80;;
81996;SDS011;71500;50.806;8.774;2024-01-11T04:56:57;21.20;;;11.70;;
81996;SDS011;71500;50.806;8.774;2024-01-11T04:59:28;13.50;;;8.70;;
81996;SDS011;71500;50.806;8.774;2024-01-11T05:02:00;20.20;;;9.90;;
81996;SDS011;71500;50.806;8.774;2024-01-11T05:04:31;20.10;;;11.70;;
81996;SDS011;71500;50.806;8.774;2024-01-11T05:07:03;16.70;;;10.00;;
81996;SDS011;71500;50.806;8.774;2024-01-11T05:09:34;19.10;;;9.80;;
81996;SDS011;71500;50.806;8.774;2024-01-11T05:12:08;19.70;;;10.50;;
81996;SDS011;71500;50.806;8.774;2024-01-11T05:17:09;12.10;;;6.20;;
81996;SDS011;71500;50.806;8.774;2024-01-11T05:19:41;12.40;;;6.80;;
81996;SDS011;71500;50.806;8.774;2024-01-11T05:22:12;13.80;;;7.90;;
81996;SDS011;71500;50.806;8.774;2024-01-11T05:24:43;18.20;;;9.80;;
81996;SDS011;71500;50.806;8.774;2024-01-11T05:27:15;15.70;;;9.70;;
81996;SDS011;71500;50.806;8.774;2024-01-11T05:29:46;15.70;;;7.70;;
81996;SDS011;71500;50.806;8.774;2024-01-11T05:32:17;16.00;;;9.10;;
81996;SDS011;71500;50.806;8.774;2024-01-11T05:34:49;13.90;;;7.80;;
81996;SDS011;71500;50.806;8.774;2024-01-11T05:37:20;16.10;;;8.60;;
81996;SDS011;71500;50.806;8.774;2024-01-11T05:39:51;16.10;;;8.90;;
81996;SDS011;71500;50.806;8.774;2024-01-11T05:42:25;13.40;;;7.50;;
81996;SDS011;71500;50.806;8.774;2024-01-11T05:44:57;16.20;;;9.30;;
81996;SDS011;71500;50.806;8.774;2024-01-11T05:47:29;17.70;;;10.10;;
81996;SDS011;71500;50.806;8.774;2024-01-11T05:50:00;14.70;;;8.40;;
81996;SDS011;71500;50.806;8.774;2024-01-11T05:52:32;14.10;;;7.70;;
81996;SDS011;71500;50.806;8.774;2024-01-11T05:55:04;15.20;;;9.10;;
81996;SDS011;71500;50.806;8.774;2024-01-11T05:57:35;17.40;;;10.10;;
81996;SDS011;71500;50.806;8.774;2024-01-11T06:00:07;14.30;;;8.70;;
81996;SDS011;71500;50.806;8.774;2024-01-11T06:02:39;15.60;;;8.50;;
81996;SDS011;71500;50.806;8.774;2024-01-11T06:05:11;17.00;;;9.60;;
81996;SDS011;71500;50.806;8.774;2024-01-11T06:07:43;17.90;;;10.10;;
81996;SDS011;71500;50.806;8.774;2024-01-11T06:10:15;16.30;;;10.20;;
81996;SDS011;71500;50.806;8.774;2024-01-11T06:12:46;16.90;;;9.80;;
81996;SDS011;71500;50.806;8.774;2024-01-11T06:15:18;15.50;;;8.60;;
81996;SDS011;71500;50.806;8.774;2024-01-11T06:17:49;16.90;;;9.60;;
81996;SDS011;71500;50.806;8.774;2024-01-11T06:20:21;23.50;;;13.10;;
81996;SDS011;71500;50.806;8.774;2024-01-11T06:22:52;27.20;;;12.20;;
81996;SDS011;71500;50.806;8.774;2024-01-11T06:25:24;24.80;;;11.50;;
81996;SDS011;71500;50.806;8.774;2024-01-11T06:27:55;29.30;;;13.40;;
81996;SDS011;71500;50.806;8.774;2024-01-11T06:30:26;26.40;;;13.40;;
81996;SDS011;71500;50.806;8.774;2024-01-11T06:32:58;28.70;;;12.70;;
81996;SDS011;71500;50.806;8.774;2024-01-11T06:35:29;29.10;;;14.90;;
81996;SDS011;71500;50.806;8.774;2024-01-11T06:38:01;19.70;;;10.70;;
81996;SDS011;71500;50.806;8.774;2024-01-11T06:40:33;10.70;;;9.30;;
81996;SDS011;71500;50.806;8.774;2024-01-11T06:43:04;15.60;;;8.90;;
81996;SDS011;71500;50.806;8.774;2024-01-11T06:45:35;18.30;;;10.20;;
81996;SDS011;71500;50.806;8.774;2024-01-11T06:48:07;13.00;;;8.20;;
81996;SDS011;71500;50.806;8.774;2024-01-11T06:50:39;13.10;;;9.30;;
81996;SDS011;71500;50.806;8.774;2024-01-11T06:53:11;14.80;;;10.60;;
81996;SDS011;71500;50.806;8.774;2024-01-11T06:55:42;14.30;;;11.00;;
81996;SDS011;71500;50.806;8.774;2024-01-11T06:58:16;16.50;;;8.60;;
81996;SDS011;71500;50.806;8.774;2024-01-11T07:00:50;13.70;;;7.70;;
81996;SDS011;71500;50.806;8.774;2024-01-11T07:03:23;15.60;;;8.40;;
81996;SDS011;71500;50.806;8.774;2024-01-11T07:05:54;16.40;;;10.80;;
81996;SDS011;71500;50.806;8.774;2024-01-11T07:08:26;14.50;;;9.00;;
81996;SDS011;71500;50.806;8.774;2024-01-11T07:10:58;13.40;;;8.20;;
81996;SDS011;71500;50.806;8.774;2024-01-11T07:13:30;18.10;;;7.90;;
81996;SDS011;71500;50.806;8.774;2024-01-11T07:16:04;13.10;;;8.30;;
81996;SDS011;71500;50.806;8.774;2024-01-11T07:18:36;17.50;;;9.90;;
81996;SDS011;71500;50.806;8.774;2024-01-11T07:21:07;18.80;;;10.80;;
81996;SDS011;71500;50.806;8.774;2024-01-11T07:23:39;16.90;;;10.60;;
81996;SDS011;71500;50.806;8.774;2024-01-11T07:26:10;19.10;;;9.90;;
81996;SDS011;71500;50.806;8.774;2024-01-11T07:28:42;18.60;;;10.30;;
81996;SDS011;71500;50.806;8.774;2024-01-11T07:31:13;15.90;;;9.70;;
81996;SDS011;71500;50.806;8.774;2024-01-11T07:33:45;18.70;;;10.30;;
81996;SDS011;71500;50.806;8.774;2024-01-11T07:36:16;18.00;;;10.90;;
81996;SDS011;71500;50.806;8.774;2024-01-11T07:38:48;18.80;;;10.50;;
81996;SDS011;71500;50.806;8.774;2024-01-11T07:41:19;17.80;;;9.50;;
81996;SDS011;71500;50.806;8.774;2024-01-11T07:43:52;22.90;;;14.00;;
81996;SDS011;71500;50.806;8.774;2024-01-11T07:46:27;19.50;;;11.10;;
81996;SDS011;71500;50.806;8.774;2024-01-11T07:49:10;14.40;;;9.80;;
81996;SDS011;71500;50.806;8.774;2024-01-11T07:51:41;16.00;;;11.00;;
81996;SDS011;71500;50.806;8.774;2024-01-11T07:54:13;19.40;;;10.60;;
81996;SDS011;71500;50.806;8.774;2024-01-11T07:56:44;18.50;;;10.00;;
81996;SDS011;71500;50.806;8.774;2024-01-11T07:59:15;19.70;;;10.80;;
81996;SDS011;71500;50.806;8.774;2024-01-11T08:01:47;13.50;;;7.80;;
81996;SDS011;71500;50.806;8.774;2024-01-11T08:04:18;19.80;;;10.30;;
81996;SDS011;71500;50.806;8.774;2024-01-11T08:06:50;21.80;;;11.60;;
81996;SDS011;71500;50.806;8.774;2024-01-11T08:09:22;24.90;;;12.80;;
81996;SDS011;71500;50.806;8.774;2024-01-11T08:11:53;19.40;;;10.80;;
81996;SDS011;71500;50.806;8.774;2024-01-11T08:14:25;27.80;;;13.20;;
81996;SDS011;71500;50.806;8.774;2024-01-11T08:16:57;29.80;;;15.30;;
81996;SDS011;71500;50.806;8.774;2024-01-11T08:19:30;30.80;;;14.90;;
81996;SDS011;71500;50.806;8.774;2024-01-11T08:22:02;22.40;;;12.50;;
81996;SDS011;71500;50.806;8.774;2024-01-11T08:24:34;23.70;;;13.00;;
81996;SDS011;71500;50.806;8.774;2024-01-11T08:27:06;14.20;;;8.10;;
81996;SDS011;71500;50.806;8.774;2024-01-11T08:29:37;12.30;;;7.60;;
81996;SDS011;71500;50.806;8.774;2024-01-11T08:32:09;16.00;;;8.90;;
81996;SDS011;71500;50.806;8.774;2024-01-11T08:34:57;13.50;;;8.30;;
81996;SDS011;71500;50.806;8.774;2024-01-11T08:37:29;12.60;;;8.40;;
81996;SDS011;71500;50.806;8.774;2024-01-11T08:40:01;18.00;;;9.60;;
81996;SDS011;71500;50.806;8.774;2024-01-11T08:42:34;17.80;;;9.90;;
81996;SDS011;71500;50.806;8.774;2024-01-11T08:45:07;19.90;;;9.90;;
81996;SDS011;71500;50.806;8.774;2024-01-11T08:47:39;21.20;;;11.30;;
81996;SDS011;71500;50.806;8.774;2024-01-11T08:50:13;21.90;;;11.00;;
81996;SDS011;71500;50.806;8.774;2024-01-11T08:52:51;18.30;;;10.00;;
81996;SDS011;71500;50.806;8.774;2024-01-11T08:55:24;21.00;;;12.20;;
81996;SDS011;71500;50.806;8.774;2024-01-11T08:57:56;20.30;;;11.20;;
81996;SDS011;71500;50.806;8.774;2024-01-11T09:00:27;22.40;;;12.60;;
81996;SDS011;71500;50.806;8.774;2024-01-11T09:02:59;22.90;;;12.80;;
81996;SDS011;71500;50.806;8.774;2024-01-11T09:05:30;26.20;;;13.80;;
81996;SDS011;71500;50.806;8.774;2024-01-11T09:08:02;25.90;;;13.80;;
81996;SDS011;71500;50.806;8.774;2024-01-11T09:13:05;22.80;;;10.90;;
81996;SDS011;71500;50.806;8.774;2024-01-11T09:15:37;17.90;;;11.60;;
81996;SDS011;71500;50.806;8.774;2024-01-11T09:18:08;19.00;;;11.50;;
81996;SDS011;71500;50.806;8.774;2024-01-11T09:20:40;17.80;;;9.40;;
81996;SDS011;71500;50.806;8.774;2024-01-11T09:23:11;25.00;;;13.50;;
81996;SDS011;71500;50.806;8.774;2024-01-11T09:25:43;21.20;;;13.40;;
81996;SDS011;71500;50.806;8.774;2024-01-11T09:28:14;20.30;;;13.10;;
81996;SDS011;71500;50.806;8.774;2024-01-11T09:30:45;16.20;;;10.20;;
81996;SDS011;71500;50.806;8.774;2024-01-11T09:33:17;16.60;;;10.40;;
81996;SDS011;71500;50.806;8.774;2024-01-11T09:35:48;18.30;;;10.40;;
81996;SDS011;71500;50.806;8.774;2024-01-11T09:38:20;19.00;;;9.60;;
81996;SDS011;71500;50.806;8.774;2024-01-11T09:40:53;21.40;;;10.70;;
81996;SDS011;71500;50.806;8.774;2024-01-11T09:43:37;18.80;;;10.40;;
81996;SDS011;71500;50.806;8.774;2024-01-11T09:46:10;22.60;;;11.20;;
81996;SDS011;71500;50.806;8.774;2024-01-11T09:48:43;23.70;;;13.10;;
81996;SDS011;71500;50.806;8.774;2024-01-11T09:51:16;17.30;;;11.10;;
81996;SDS011;71500;50.806;8.774;2024-01-11T09:53:48;21.40;;;11.00;;
81996;SDS011;71500;50.806;8.774;2024-01-11T09:56:23;22.70;;;13.20;;
81996;SDS011;71500;50.806;8.774;2024-01-11T09:58:56;20.10;;;10.70;;
81996;SDS011;71500;50.806;8.774;2024-01-11T10:01:28;20.20;;;10.50;;
81996;SDS011;71500;50.806;8.774;2024-01-11T10:03:59;19.40;;;11.60;;
81996;SDS011;71500;50.806;8.774;2024-01-11T10:06:33;23.40;;;12.00;;
81996;SDS011;71500;50.806;8.774;2024-01-11T10:09:08;18.80;;;10.50;;
81996;SDS011;71500;50.806;8.774;2024-01-11T10:11:39;19.20;;;11.60;;
81996;SDS011;71500;50.806;8.774;2024-01-11T10:14:12;18.10;;;10.70;;
81996;SDS011;71500;50.806;8.774;2024-01-11T10:16:43;21.40;;;11.60;;
81996;SDS011;71500;50.806;8.774;2024-01-11T10:19:15;17.20;;;10.50;;
81996;SDS011;71500;50.806;8.774;2024-01-11T10:21:48;21.30;;;10.30;;
81996;SDS011;71500;50.806;8.774;2024-01-11T10:24:19;19.60;;;12.00;;
81996;SDS011;71500;50.806;8.774;2024-01-11T10:26:56;22.60;;;11.50;;
81996;SDS011;71500;50.806;8.774;2024-01-11T10:29:32;20.30;;;11.70;;
81996;SDS011;71500;50.806;8.774;2024-01-11T10:32:05;17.80;;;10.20;;
81996;SDS011;71500;50.806;8.774;2024-01-11T10:34:38;22.70;;;12.70;;
81996;SDS011;71500;50.806;8.774;2024-01-11T10:37:10;17.20;;;10.80;;
81996;SDS011;71500;50.806;8.774;2024-01-11T10:39:42;16.80;;;10.60;;
81996;SDS011;71500;50.806;8.774;2024-01-11T10:42:14;16.40;;;9.50;;
81996;SDS011;71500;50.806;8.774;2024-01-11T10:44:54;20.90;;;12.70;;
81996;SDS011;71500;50.806;8.774;2024-01-11T10:47:29;21.70;;;13.90;;
81996;SDS011;71500;50.806;8.774;2024-01-11T10:50:03;19.40;;;11.30;;
81996;SDS011;71500;50.806;8.774;2024-01-11T10:52:39;21.20;;;11.10;;
81996;SDS011;71500;50.806;8.774;2024-01-11T10:55:23;16.60;;;11.20;;
81996;SDS011;71500;50.806;8.774;2024-01-11T10:57:56;18.70;;;10.80;;
81996;SDS011;71500;50.806;8.774;2024-01-11T11:00:29;21.00;;;12.50;;
81996;SDS011;71500;50.806;8.774;2024-01-11T11:03:04;17.80;;;11.60;;
81996;SDS011;71500;50.806;8.774;2024-01-11T11:05:36;19.30;;;10.30;;
81996;SDS011;71500;50.806;8.774;2024-01-11T11:08:09;19.90;;;11.00;;
81996;SDS011;71500;50.806;8.774;2024-01-11T11:10:42;22.00;;;10.30;;
81996;SDS011;71500;50.806;8.774;2024-01-11T11:13:16;16.80;;;10.40;;
81996;SDS011;71500;50.806;8.774;2024-01-11T11:15:49;19.30;;;12.10;;
81996;SDS011;71500;50.806;8.774;2024-01-11T11:18:21;20.90;;;10.90;;
81996;SDS011;71500;50.806;8.774;2024-01-11T11:20:54;13.40;;;9.60;;
81996;SDS011;71500;50.806;8.774;2024-01-11T11:23:25;14.10;;;9.10;;
81996;SDS011;71500;50.806;8.774;2024-01-11T11:25:56;13.80;;;8.70;;
81996;SDS011;71500;50.806;8.774;2024-01-11T11:28:28;17.60;;;11.40;;
81996;SDS011;71500;50.806;8.774;2024-01-11T11:31:03;19.50;;;10.50;;
81996;SDS011;71500;50.806;8.774;2024-01-11T11:33:35;22.70;;;11.90;;
81996;SDS011;71500;50.806;8.774;2024-01-11T11:36:09;17.90;;;12.40;;
81996;SDS011;71500;50.806;8.774;2024-01-11T11:38:46;15.40;;;10.10;;
81996;SDS011;71500;50.806;8.774;2024-01-11T11:41:18;16.80;;;10.70;;
81996;SDS011;71500;50.806;8.774;2024-01-11T11:43:51;19.10;;;11.00;;
81996;SDS011;71500;50.806;8.774;2024-01-11T11:46:22;18.70;;;12.10;;
81996;SDS011;71500;50.806;8.774;2024-01-11T11:48:54;14.30;;;10.10;;
81996;SDS011;71500;50.806;8.774;2024-01-11T11:51:26;18.20;;;11.70;;
81996;SDS011;71500;50.806;8.774;2024-01-11T11:53:58;18.40;;;12.10;;
81996;SDS011;71500;50.806;8.774;2024-01-11T11:59:01;21.50;;;11.90;;
81996;SDS011;71500;50.806;8.774;2024-01-11T12:01:34;17.40;;;10.60;;
81996;SDS011;71500;50.806;8.774;2024-01-11T12:04:07;15.00;;;9.80;;
81996;SDS011;71500;50.806;8.774;2024-01-11T12:06:39;14.40;;;10.00;;
81996;SDS011;71500;50.806;8.774;2024-01-11T12:09:11;19.40;;;9.60;;
81996;SDS011;71500;50.806;8.774;2024-01-11T12:11:49;14.60;;;10.00;;
81996;SDS011;71500;50.806;8.774;2024-01-11T12:14:35;15.10;;;9.50;;
81996;SDS011;71500;50.806;8.774;2024-01-11T12:17:07;14.90;;;9.90;;
81996;SDS011;71500;50.806;8.774;2024-01-11T12:19:38;14.80;;;10.50;;
81996;SDS011;71500;50.806;8.774;2024-01-11T12:22:10;14.50;;;9.70;;
81996;SDS011;71500;50.806;8.774;2024-01-11T12:24:41;17.40;;;10.90;;
81996;SDS011;71500;50.806;8.774;2024-01-11T12:27:12;17.00;;;10.20;;
81996;SDS011;71500;50.806;8.774;2024-01-11T12:29:44;17.80;;;11.70;;
81996;SDS011;71500;50.806;8.774;2024-01-11T12:32:26;14.80;;;10.10;;
81996;SDS011;71500;50.806;8.774;2024-01-11T12:34:59;16.50;;;10.40;;
81996;SDS011;71500;50.806;8.774;2024-01-11T12:37:31;16.60;;;10.40;;
81996;SDS011;71500;50.806;8.774;2024-01-11T12:40:03;16.00;;;9.60;;
81996;SDS011;71500;50.806;8.774;2024-01-11T12:42:39;14.80;;;8.90;;
81996;SDS011;71500;50.806;8.774;2024-01-11T12:45:10;15.80;;;10.30;;
81996;SDS011;71500;50.806;8.774;2024-01-11T12:47:42;17.50;;;11.70;;
81996;SDS011;71500;50.806;8.774;2024-01-11T12:50:14;14.70;;;9.80;;
81996;SDS011;71500;50.806;8.774;2024-01-11T12:52:46;16.90;;;10.90;;
81996;SDS011;71500;50.806;8.774;2024-01-11T12:55:34;13.20;;;9.00;;
81996;SDS011;71500;50.806;8.774;2024-01-11T12:58:22;14.80;;;9.70;;
81996;SDS011;71500;50.806;8.774;2024-01-11T13:00:55;13.30;;;9.80;;
81996;SDS011;71500;50.806;8.774;2024-01-11T13:03:27;16.90;;;9.80;;
81996;SDS011;71500;50.806;8.774;2024-01-11T13:05:59;14.30;;;9.50;;
81996;SDS011;71500;50.806;8.774;2024-01-11T13:08:31;15.20;;;9.90;;
81996;SDS011;71500;50.806;8.774;2024-01-11T13:11:05;15.10;;;9.60;;
81996;SDS011;71500;50.806;8.774;2024-01-11T13:13:36;14.00;;;10.00;;
81996;SDS011;71500;50.806;8.774;2024-01-11T13:16:08;13.80;;;9.20;;
81996;SDS011;71500;50.806;8.774;2024-01-11T13:18:42;13.90;;;8.60;;
81996;SDS011;71500;50.806;8.774;2024-01-11T13:21:14;14.70;;;9.50;;
81996;SDS011;71500;50.806;8.774;2024-01-11T13:23:47;13.50;;;8.80;;
81996;SDS011;71500;50.806;8.774;2024-01-11T13:26:18;14.60;;;8.90;;
81996;SDS011;71500;50.806;8.774;2024-01-11T13:28:51;12.70;;;9.30;;
81996;SDS011;71500;50.806;8.774;2024-01-11T13:31:23;16.10;;;9.70;;
81996;SDS011;71500;50.806;8.774;2024-01-11T13:33:54;16.90;;;10.70;;
81996;SDS011;71500;50.806;8.774;2024-01-11T13:36:26;14.30;;;10.60;;
81996;SDS011;71500;50.806;8.774;2024-01-11T13:38:58;15.20;;;8.40;;
81996;SDS011;71500;50.806;8.774;2024-01-11T13:41:29;15.10;;;10.40;;
81996;SDS011;71500;50.806;8.774;2024-01-11T13:44:00;14.70;;;9.90;;
81996;SDS011;71500;50.806;8.774;2024-01-11T13:46:34;14.50;;;10.40;;
81996;SDS011;71500;50.806;8.774;2024-01-11T13:49:06;12.90;;;8.50;;
81996;SDS011;71500;50.806;8.774;2024-01-11T13:51:38;13.40;;;9.40;;
81996;SDS011;71500;50.806;8.774;2024-01-11T13:54:24;14.70;;;8.80;;
81996;SDS011;71500;50.806;8.774;2024-01-11T13:56:55;14.60;;;8.40;;
81996;SDS011;71500;50.806;8.774;2024-01-11T13:59:27;10.70;;;8.60;;
81996;SDS011;71500;50.806;8.774;2024-01-11T14:01:58;10.00;;;7.30;;
81996;SDS011;71500;50.806;8.774;2024-01-11T14:04:29;11.60;;;7.90;;
81996;SDS011;71500;50.806;8.774;2024-01-11T14:07:01;11.20;;;8.10;;
81996;SDS011;71500;50.806;8.774;2024-01-11T14:09:33;10.00;;;7.00;;
81996;SDS011;71500;50.806;8.774;2024-01-11T14:12:06;11.50;;;7.60;;
81996;SDS011;71500;50.806;8.774;2024-01-11T14:14:37;11.40;;;7.40;;
81996;SDS011;71500;50.806;8.774;2024-01-11T14:17:09;12.20;;;7.80;;
81996;SDS011;71500;50.806;8.774;2024-01-11T14:19:40;10.40;;;6.80;;
81996;SDS011;71500;50.806;8.774;2024-01-11T14:22:12;10.80;;;7.00;;
81996;SDS011;71500;50.806;8.774;2024-01-11T14:24:43;10.70;;;7.50;;
81996;SDS011;71500;50.806;8.774;2024-01-11T14:27:15;11.90;;;7.60;;
81996;SDS011;71500;50.806;8.774;2024-01-11T14:29:46;11.30;;;7.30;;
81996;SDS011;71500;50.806;8.774;2024-01-11T14:32:17;12.40;;;7.90;;
81996;SDS011;71500;50.806;8.774;2024-01-11T14:35:01;10.90;;;7.60;;
81996;SDS011;71500;50.806;8.774;2024-01-11T14:37:35;12.80;;;7.70;;
81996;SDS011;71500;50.806;8.774;2024-01-11T14:40:09;13.50;;;8.50;;
81996;SDS011;71500;50.806;8.774;2024-01-11T14:42:42;11.80;;;7.90;;
81996;SDS011;71500;50.806;8.774;2024-01-11T14:45:14;12.60;;;8.60;;
81996;SDS011;71500;50.806;8.774;2024-01-11T14:47:46;11.80;;;8.10;;
81996;SDS011;71500;50.806;8.774;2024-01-11T14:50:18;12.50;;;7.60;;
81996;SDS011;71500;50.806;8.774;2024-01-11T14:52:49;12.80;;;7.50;;
81996;SDS011;71500;50.806;8.774;2024-01-11T14:55:21;13.50;;;8.40;;
81996;SDS011;71500;50.806;8.774;2024-01-11T14:57:52;14.80;;;8.40;;
81996;SDS011;71500;50.806;8.774;2024-01-11T15:02:55;10.60;;;7.10;;
81996;SDS011;71500;50.806;8.774;2024-01-11T15:05:27;12.50;;;8.20;;
81996;SDS011;71500;50.806;8.774;2024-01-11T15:08:00;13.30;;;8.30;;
81996;SDS011;71500;50.806;8.774;2024-01-11T15:10:32;15.80;;;9.10;;
81996;SDS011;71500;50.806;8.774;2024-01-11T15:13:04;14.30;;;9.10;;
81996;SDS011;71500;50.806;8.774;2024-01-11T15:15:35;14.30;;;9.00;;
81996;SDS011;71500;50.806;8.774;2024-01-11T15:18:08;14.00;;;9.40;;
81996;SDS011;71500;50.806;8.774;2024-01-11T15:20:40;12.20;;;9.20;;
81996;SDS011;71500;50.806;8.774;2024-01-11T15:23:11;12.60;;;9.80;;
81996;SDS011;71500;50.806;8.774;2024-01-11T15:25:42;15.90;;;10.10;;